Time,TemperatureF,DewpointF,PressureIn,WindDirection,WindDirectionDegrees,WindSpeedMPH,WindSpeedGustMPH,Humidity,HourlyPrecipIn,Conditions,Clouds,dailyrainin,SolarRadiationWatts/m^2,SoftwareType,DateUTC
2013-11-02 09:40:00,43.4,41.8,29.88,NNW,327,0.0,0.0,94,0.00,,,0.00,21,Wunderground v.1.15,2013-11-02 13:40:00,
2013-11-02 09:45:00,43.6,42.0,29.88,NNW,327,0.0,0.0,94,0.00,,,0.00,25,Wunderground v.1.15,2013-11-02 13:45:00,
2013-11-02 09:50:00,43.9,42.3,29.88,NNW,327,0.0,0.0,94,0.00,,,0.00,49,Wunderground v.1.15,2013-11-02 13:50:00,
2013-11-02 09:55:00,44.2,42.6,29.88,NNW,327,0.0,0.0,94,0.00,,,0.00,44,Wunderground v.1.15,2013-11-02 13:55:00,
2013-11-02 10:00:00,44.4,42.8,29.89,NNW,327,0.0,0.0,94,0.00,,,0.00,83,Wunderground v.1.15,2013-11-02 14:00:00,
2013-11-02 10:05:00,45.0,43.4,29.89,NNW,327,0.0,0.0,94,0.00,,,0.00,46,Wunderground v.1.15,2013-11-02 14:05:00,
2013-11-02 10:10:00,45.4,43.8,29.89,NNW,327,0.0,0.0,94,0.00,,,0.00,44,Wunderground v.1.15,2013-11-02 14:10:00,
2013-11-02 10:15:00,45.7,44.1,29.89,NNW,327,0.0,0.0,94,0.00,,,0.00,35,Wunderground v.1.15,2013-11-02 14:15:00,
2013-11-02 10:25:00,46.6,45.0,29.89,NNW,327,0.0,0.0,94,0.00,,,0.00,148,Wunderground v.1.15,2013-11-02 14:25:00,
2013-11-02 10:35:00,48.0,46.1,29.90,NNW,327,0.0,0.0,93,0.00,,,0.00,93,Wunderground v.1.15,2013-11-02 14:35:00,
2013-11-02 10:45:00,49.3,46.5,29.90,NNW,337,0.0,0.0,90,0.00,,,0.00,105,Wunderground v.1.15,2013-11-02 14:45:00,
2013-11-02 10:50:00,49.7,46.0,29.90,NNW,337,0.0,0.0,87,0.00,,,0.00,70,Wunderground v.1.15,2013-11-02 14:50:00,
2013-11-02 10:55:00,50.1,46.4,29.90,NNW,337,0.0,0.0,87,0.00,,,0.00,90,Wunderground v.1.15,2013-11-02 14:55:00,
2013-11-02 11:00:00,50.6,46.9,29.90,ENE,64,0.0,2.0,87,0.00,,,0.00,114,Wunderground v.1.15,2013-11-02 15:00:00,
2013-11-02 11:05:00,51.3,47.3,29.90,East,94,1.0,2.0,86,0.00,,,0.00,86,Wunderground v.1.15,2013-11-02 15:05:00,
2013-11-02 11:15:00,52.4,48.0,29.89,East,96,0.0,1.0,85,0.00,,,0.00,144,Wunderground v.1.15,2013-11-02 15:15:00,
2013-11-02 11:20:00,53.1,47.4,29.89,East,96,0.0,0.0,81,0.00,,,0.00,44,Wunderground v.1.15,2013-11-02 15:20:00,
2013-11-02 11:25:00,53.6,47.2,29.89,East,96,1.0,1.0,79,0.00,,,0.00,58,Wunderground v.1.15,2013-11-02 15:25:00,
2013-11-02 11:30:00,54.1,47.0,29.89,East,96,1.0,1.0,77,0.00,,,0.00,79,Wunderground v.1.15,2013-11-02 15:30:00,
2013-11-02 11:35:00,54.5,47.4,29.89,East,96,1.0,1.0,77,0.00,,,0.00,255,Wunderground v.1.15,2013-11-02 15:35:00,
2013-11-02 11:40:00,54.8,47.0,29.89,East,96,0.0,0.0,75,0.00,,,0.00,153,Wunderground v.1.15,2013-11-02 15:40:00,
2013-11-02 11:50:00,55.6,47.1,29.88,NE,36,0.0,0.0,73,0.00,,,0.00,301,Wunderground v.1.15,2013-11-02 15:50:00,
2013-11-02 11:55:00,55.9,47.7,29.88,NE,36,1.0,1.0,74,0.00,,,0.00,62,Wunderground v.1.15,2013-11-02 15:55:00,
2013-11-02 12:00:00,55.9,47.0,29.89,NE,36,1.0,1.0,72,0.00,,,0.00,74,Wunderground v.1.15,2013-11-02 16:00:00,
2013-11-02 12:05:00,55.9,47.0,29.88,NE,36,0.0,1.0,72,0.00,,,0.00,127,Wunderground v.1.15,2013-11-02 16:05:00,
2013-11-02 12:15:00,56.8,47.5,29.88,ESE,113,0.0,0.0,71,0.00,,,0.00,95,Wunderground v.1.15,2013-11-02 16:15:00,
2013-11-02 12:20:00,57.1,47.4,29.88,ESE,113,0.0,0.0,70,0.00,,,0.00,165,Wunderground v.1.15,2013-11-02 16:20:00,
2013-11-02 12:30:00,57.1,47.8,29.88,NE,49,0.0,0.0,71,0.00,,,0.00,40,Wunderground v.1.15,2013-11-02 16:30:00,
2013-11-02 12:40:00,56.8,45.6,29.88,NE,49,0.0,0.0,66,0.00,,,0.00,109,Wunderground v.1.15,2013-11-02 16:40:00,
2013-11-02 12:50:00,57.8,45.7,29.88,North,360,0.0,2.0,64,0.00,,,0.00,107,Wunderground v.1.15,2013-11-02 16:50:00,
2013-11-02 12:55:00,58.5,44.7,29.88,NNE,13,1.0,2.0,60,0.00,,,0.00,134,Wunderground v.1.15,2013-11-02 16:55:00,
2013-11-02 13:00:00,59.0,46.0,29.88,North,11,2.0,2.0,62,0.00,,,0.00,163,Wunderground v.1.15,2013-11-02 17:00:00,
2013-11-02 13:05:00,59.5,45.6,29.88,NNW,345,1.0,2.0,60,0.00,,,0.00,98,Wunderground v.1.15,2013-11-02 17:05:00,
2013-11-02 13:15:00,59.0,45.1,29.87,North,355,3.0,4.0,60,0.00,,,0.00,202,Wunderground v.1.15,2013-11-02 17:15:00,
2013-11-02 13:25:00,58.7,44.8,29.88,NNW,329,4.0,5.0,60,0.00,,,0.00,35,Wunderground v.1.15,2013-11-02 17:25:00,
2013-11-02 13:35:00,58.0,45.0,29.88,NNW,331,3.0,4.0,62,0.00,,,0.00,90,Wunderground v.1.15,2013-11-02 17:35:00,
2013-11-02 13:40:00,57.9,45.0,29.88,NNW,331,2.0,2.0,62,0.00,,,0.00,135,Wunderground v.1.15,2013-11-02 17:40:00,
2013-11-02 13:45:00,57.7,43.9,29.88,NNW,331,2.0,5.0,60,0.00,,,0.00,79,Wunderground v.1.15,2013-11-02 17:45:00,
2013-11-02 13:55:00,57.9,44.1,29.88,NW,326,2.0,4.0,60,0.00,,,0.00,46,Wunderground v.1.15,2013-11-02 17:55:00,
2013-11-02 14:00:00,58.2,44.8,29.88,NNW,327,2.0,3.0,61,0.00,,,0.00,91,Wunderground v.1.15,2013-11-02 18:00:00,
2013-11-02 14:05:00,58.3,44.5,29.88,NNW,347,3.0,3.0,60,0.00,,,0.00,72,Wunderground v.1.15,2013-11-02 18:05:00,
2013-11-02 14:15:00,59.3,44.5,29.87,NW,321,1.0,2.0,58,0.00,,,0.00,543,Wunderground v.1.15,2013-11-02 18:15:00,
2013-11-02 14:25:00,60.3,43.1,29.86,NNW,338,3.0,3.0,53,0.00,,,0.00,107,Wunderground v.1.15,2013-11-02 18:25:00,
2013-11-02 14:35:00,60.5,42.3,29.86,North,355,2.0,3.0,51,0.00,,,0.00,649,Wunderground v.1.15,2013-11-02 18:35:00,
2013-11-02 14:40:00,60.6,43.4,29.86,NNW,330,3.0,3.0,53,0.00,,,0.00,643,Wunderground v.1.15,2013-11-02 18:40:00,
2013-11-02 14:45:00,60.7,43.5,29.87,NNW,336,2.0,3.0,53,0.00,,,0.00,663,Wunderground v.1.15,2013-11-02 18:45:00,
2013-11-02 14:55:00,60.8,43.6,29.86,North,355,3.0,6.0,53,0.00,,,0.00,35,Wunderground v.1.15,2013-11-02 18:55:00,
2013-11-02 15:00:00,59.4,43.7,29.86,NNW,344,4.0,4.0,56,0.00,,,0.00,25,Wunderground v.1.15,2013-11-02 19:00:00,
2013-11-02 15:05:00,58.0,43.3,29.87,North,349,5.0,5.0,58,0.00,,,0.00,40,Wunderground v.1.15,2013-11-02 19:05:00,
2013-11-02 15:15:00,58.2,44.4,29.87,North,360,3.0,4.0,60,0.00,,,0.00,552,Wunderground v.1.15,2013-11-02 19:15:00,
2013-11-02 15:20:00,59.0,44.2,29.86,NNW,336,2.0,5.0,58,0.00,,,0.00,568,Wunderground v.1.15,2013-11-02 19:20:00,
2013-11-02 15:30:00,59.0,42.8,29.87,NNW,340,5.0,5.0,55,0.00,,,0.00,81,Wunderground v.1.15,2013-11-02 19:30:00,
2013-11-02 15:35:00,58.7,43.5,29.87,North,355,5.0,5.0,57,0.00,,,0.00,46,Wunderground v.1.15,2013-11-02 19:35:00,
2013-11-02 15:40:00,58.3,44.0,29.87,North,355,2.0,3.0,59,0.00,,,0.00,404,Wunderground v.1.15,2013-11-02 19:40:00,
2013-11-02 15:45:00,58.0,42.4,29.87,NNW,332,2.0,3.0,56,0.00,,,0.00,137,Wunderground v.1.15,2013-11-02 19:45:00,
2013-11-02 15:50:00,58.2,41.6,29.87,NNW,348,3.0,6.0,54,0.00,,,0.00,492,Wunderground v.1.15,2013-11-02 19:50:00,
2013-11-02 15:55:00,58.8,41.2,29.87,North,349,3.0,6.0,52,0.00,,,0.00,441,Wunderground v.1.15,2013-11-02 19:55:00,
2013-11-02 16:00:00,59.0,41.4,29.87,NNW,333,3.0,3.0,52,0.00,,,0.00,148,Wunderground v.1.15,2013-11-02 20:00:00,
2013-11-02 16:05:00,59.5,40.3,29.87,NNW,339,3.0,3.0,49,0.00,,,0.00,100,Wunderground v.1.15,2013-11-02 20:05:00,
2013-11-02 16:15:00,59.0,41.4,29.87,NNW,332,4.0,5.0,52,0.00,,,0.00,33,Wunderground v.1.15,2013-11-02 20:15:00,
2013-11-02 16:20:00,58.6,41.5,29.87,NNW,338,4.0,4.0,53,0.00,,,0.00,35,Wunderground v.1.15,2013-11-02 20:20:00,
2013-11-02 16:30:00,57.8,40.8,29.88,North,351,3.0,3.0,53,0.00,,,0.00,33,Wunderground v.1.15,2013-11-02 20:30:00,
2013-11-02 16:35:00,57.6,41.5,29.87,NNW,347,2.0,3.0,55,0.00,,,0.00,40,Wunderground v.1.15,2013-11-02 20:35:00,
2013-11-02 16:45:00,57.8,40.3,29.88,NNW,331,2.0,4.0,52,0.00,,,0.00,81,Wunderground v.1.15,2013-11-02 20:45:00,
2013-11-02 16:50:00,58.1,39.5,29.88,NNW,330,2.0,5.0,50,0.00,,,0.00,53,Wunderground v.1.15,2013-11-02 20:50:00,
2013-11-02 16:55:00,58.2,39.1,29.88,NNW,339,3.0,5.0,49,0.00,,,0.00,44,Wunderground v.1.15,2013-11-02 20:55:00,
2013-11-02 17:00:00,58.1,39.5,29.89,NNW,331,4.0,4.0,50,0.00,,,0.00,35,Wunderground v.1.15,2013-11-02 21:00:00,
2013-11-02 17:05:00,57.8,39.3,29.89,NNW,336,2.0,4.0,50,0.00,,,0.00,26,Wunderground v.1.15,2013-11-02 21:05:00,
2013-11-02 17:15:00,57.3,38.8,29.89,NNW,332,2.0,2.0,50,0.00,,,0.00,21,Wunderground v.1.15,2013-11-02 21:15:00,
2013-11-02 17:20:00,57.2,39.2,29.89,NNW,332,1.0,1.0,51,0.00,,,0.00,16,Wunderground v.1.15,2013-11-02 21:20:00,
2013-11-02 17:25:00,57.0,39.0,29.89,NNW,332,0.0,1.0,51,0.00,,,0.00,14,Wunderground v.1.15,2013-11-02 21:25:00,
2013-11-02 17:35:00,56.8,38.9,29.89,NNW,330,1.0,5.0,51,0.00,,,0.00,16,Wunderground v.1.15,2013-11-02 21:35:00,
2013-11-02 17:40:00,56.8,38.3,29.89,NNW,333,2.0,2.0,50,0.00,,,0.00,28,Wunderground v.1.15,2013-11-02 21:40:00,
2013-11-02 17:45:00,56.8,38.3,29.90,NNW,333,2.0,3.0,50,0.00,,,0.00,33,Wunderground v.1.15,2013-11-02 21:45:00,
2013-11-02 17:50:00,56.8,37.8,29.90,NNW,333,1.0,1.0,49,0.00,,,0.00,28,Wunderground v.1.15,2013-11-02 21:50:00,
2013-11-02 17:55:00,56.9,38.9,29.90,WNW,294,1.0,1.0,51,0.00,,,0.00,32,Wunderground v.1.15,2013-11-02 21:55:00,
2013-11-02 18:05:00,56.7,38.3,29.91,NNW,333,2.0,5.0,50,0.00,,,0.00,11,Wunderground v.1.15,2013-11-02 22:05:00,
2013-11-02 18:15:00,56.3,37.9,29.92,NW,319,1.0,4.0,50,0.00,,,0.00,19,Wunderground v.1.15,2013-11-02 22:15:00,
2013-11-02 18:20:00,56.2,38.3,29.92,North,360,2.0,4.0,51,0.00,,,0.00,12,Wunderground v.1.15,2013-11-02 22:20:00,
2013-11-02 18:25:00,56.0,38.6,29.92,North,350,3.0,4.0,52,0.00,,,0.00,12,Wunderground v.1.15,2013-11-02 22:25:00,
2013-11-02 18:35:00,55.8,38.9,29.93,NNW,348,2.0,3.0,53,0.00,,,0.00,0,Wunderground v.1.15,2013-11-02 22:35:00,
2013-11-02 18:40:00,55.6,39.2,29.93,NNW,336,2.0,2.0,54,0.00,,,0.00,0,Wunderground v.1.15,2013-11-02 22:40:00,
2013-11-02 18:45:00,55.3,38.9,29.93,NNW,329,2.0,3.0,54,0.00,,,0.00,0,Wunderground v.1.15,2013-11-02 22:45:00,
2013-11-02 18:50:00,55.1,38.7,29.93,North,5,3.0,5.0,54,0.00,,,0.00,0,Wunderground v.1.15,2013-11-02 22:50:00,
2013-11-02 18:55:00,55.0,38.2,29.94,North,355,5.0,5.0,53,0.00,,,0.00,0,Wunderground v.1.15,2013-11-02 22:55:00,
2013-11-02 19:00:00,54.8,38.5,29.94,NNW,340,5.0,5.0,54,0.00,,,0.00,0,Wunderground v.1.15,2013-11-02 23:00:00,
2013-11-02 19:05:00,54.7,38.8,29.95,NNW,345,3.0,5.0,55,0.00,,,0.00,0,Wunderground v.1.15,2013-11-02 23:05:00,
2013-11-02 19:15:00,54.4,38.6,29.96,North,355,2.0,4.0,55,0.00,,,0.00,0,Wunderground v.1.15,2013-11-02 23:15:00,
2013-11-02 19:20:00,54.2,38.8,29.96,North,355,1.0,1.0,56,0.00,,,0.00,0,Wunderground v.1.15,2013-11-02 23:20:00,
2013-11-02 19:25:00,53.9,38.6,29.96,North,5,1.0,5.0,56,0.00,,,0.00,0,Wunderground v.1.15,2013-11-02 23:25:00,